Time;durP1;ratioP1;P1;durP2;ratioP2;P2;SDS_P1;SDS_P2;PMS_P1;PMS_P2;Temp;Humidity;BMP_temperature;BMP_pressure;BME280_temperature;BME280_humidity;BME280_pressure;Samples;Min_cycle;Max_cycle;Signal;HPM_P1;HPM_P2
2022/08/17 00:00:53;;;;;;;50.13;30.63;;;20.90;99.90;;;;;;5121652;28;20139;-69
2022/08/17 00:03:38;;;;;;;50.83;33.17;;;21.60;99.90;;;;;;5114787;27;20073;-69
2022/08/17 00:06:12;;;;;;;47.28;32.22;;;19.70;99.90;;;;;;5105125;28;20036;-69
2022/08/17 00:08:45;;;;;;;45.63;30.67;;;19.60;99.90;;;;;;5116268;27;20118;-69
2022/08/17 00:11:15;;;;;;;47.00;31.67;;;21.20;99.90;;;;;;5143307;27;20032;-69
2022/08/17 00:13:53;;;;;;;50.65;31.50;;;20.30;99.90;;;;;;5099151;28;20095;-69
2022/08/17 00:16:30;;;;;;;49.47;30.08;;;20.80;99.90;;;;;;5128779;27;20042;-69
2022/08/17 00:18:58;;;;;;;48.13;32.63;;;20.60;99.90;;;;;;5103841;28;20071;-69
2022/08/17 00:21:24;;;;;;;47.20;29.75;;;20.80;99.90;;;;;;5120563;27;20464;-69
2022/08/17 00:23:50;;;;;;;47.47;29.17;;;;;;;;;;5133454;27;20383;-69
2022/08/17 00:26:18;;;;;;;49.63;31.48;;;21.00;99.90;;;;;;5105757;28;20046;-69
2022/08/17 00:28:44;;;;;;;45.15;29.35;;;19.50;99.90;;;;;;5115858;27;20498;-69
2022/08/17 00:31:10;;;;;;;45.65;31.67;;;;;;;;;;5121652;27;20031;-69
2022/08/17 00:33:37;;;;;;;53.63;32.13;;;19.90;99.90;;;;;;5116918;27;20043;-69
2022/08/17 00:36:04;;;;;;;49.33;32.20;;;21.80;99.90;;;;;;5124451;27;20039;-69
2022/08/17 00:38:31;;;;;;;55.15;34.13;;;20.30;99.90;;;;;;5122488;27;20046;-69
2022/08/17 00:41:00;;;;;;;53.30;32.10;;;20.90;99.90;;;;;;5122665;27;20049;-69
2022/08/17 00:43:34;;;;;;;52.03;32.63;;;19.60;99.90;;;;;;5115634;27;20047;-69
2022/08/17 00:46:04;;;;;;;46.47;31.20;;;21.70;99.90;;;;;;5121922;27;20068;-69
2022/08/17 00:48:30;;;;;;;53.30;33.72;;;21.60;99.90;;;;;;5123321;27;20067;-69
2022/08/17 00:51:15;;;;;;;53.65;34.38;;;21.20;99.90;;;;;;5127071;27;20052;-69
2022/08/17 00:53:44;;;;;;;51.13;33.60;;;20.80;99.90;;;;;;5147485;27;20034;-69
2022/08/17 00:56:14;;;;;;;54.72;34.28;;;21.00;99.90;;;;;;5105881;27;20039;-69
2022/08/17 00:58:40;;;;;;;51.35;34.25;;;20.60;99.90;;;;;;5121668;27;20038;-69
2022/08/17 01:01:08;;;;;;;52.55;34.53;;;20.90;99.90;;;;;;5138816;27;20429;-69
2022/08/17 01:03:36;;;;;;;60.60;36.40;;;20.50;99.90;;;;;;5114944;27;20040;-69
2022/08/17 01:06:04;;;;;;;59.05;35.35;;;19.50;99.90;;;;;;5121171;27;20051;-69
2022/08/17 01:08:31;;;;;;;58.67;35.90;;;21.80;99.90;;;;;;5133496;27;20077;-69
2022/08/17 01:11:02;;;;;;;53.28;36.03;;;19.50;99.90;;;;;;5119443;27;20039;-69
2022/08/17 01:13:35;;;;;;;52.13;33.47;;;20.40;99.90;;;;;;5133069;27;20039;-69
2022/08/17 01:16:08;;;;;;;55.35;36.17;;;20.50;99.90;;;;;;5128986;27;20137;-69
2022/08/17 01:18:34;;;;;;;57.90;36.50;;;21.60;99.90;;;;;;5104637;28;20111;-69
2022/08/17 01:21:30;;;;;;;61.28;37.67;;;19.40;99.90;;;;;;5101639;27;20487;-69
2022/08/17 01:23:56;;;;;;;61.30;37.22;;;;;;;;;;5092609;27;20122;-69
2022/08/17 01:26:23;;;;;;;57.45;36.55;;;;;;;;;;5120291;27;20041;-69
2022/08/17 01:28:49;;;;;;;53.08;36.85;;;21.60;99.90;;;;;;5133549;27;20416;-70
2022/08/17 01:31:15;;;;;;;54.97;36.35;;;19.50;99.90;;;;;;5109989;27;20023;-69
2022/08/17 01:33:41;;;;;;;62.58;39.30;;;21.50;99.90;;;;;;5128288;27;20036;-69
2022/08/17 01:36:07;;;;;;;62.53;39.92;;;19.40;99.90;;;;;;5131182;27;20400;-69
2022/08/17 01:38:35;;;;;;;58.33;39.53;;;19.10;99.90;;;;;;5133420;27;20094;-69
2022/08/17 01:41:10;;;;;;;61.63;38.42;;;20.60;99.90;;;;;;5131520;27;20086;-69
2022/08/17 01:43:53;;;;;;;56.50;39.63;;;21.40;99.90;;;;;;5132698;27;20069;-69
2022/08/17 01:46:23;;;;;;;61.83;37.83;;;19.80;99.90;;;;;;5116744;27;20047;-69
2022/08/17 01:48:50;;;;;;;60.88;37.97;;;20.40;99.90;;;;;;5114375;27;20066;-69
2022/08/17 01:51:16;;;;;;;58.55;38.20;;;21.20;99.90;;;;;;5132244;27;20039;-69
2022/08/17 01:53:47;;;;;;;63.22;37.53;;;20.30;99.90;;;;;;5131693;27;20031;-69
2022/08/17 01:56:17;;;;;;;55.33;36.78;;;20.10;99.90;;;;;;5118854;27;20047;-69
2022/08/17 01:58:43;;;;;;;54.63;35.42;;;18.90;99.90;;;;;;5133942;27;20031;-69
2022/08/17 02:01:10;;;;;;;57.88;37.45;;;20.80;99.90;;;;;;5132895;27;20036;-69
2022/08/17 02:03:36;;;;;;;55.92;35.90;;;;;;;;;;5112351;27;20039;-69
2022/08/17 02:06:04;;;;;;;55.67;37.67;;;21.20;99.90;;;;;;5114358;27;20039;-70
2022/08/17 02:08:34;;;;;;;56.45;38.78;;;;;;;;;;5130325;27;20027;-69
2022/08/17 02:11:05;;;;;;;56.95;36.72;;;19.20;99.90;;;;;;5131545;27;20043;-69
2022/08/17 02:13:32;;;;;;;54.23;37.93;;;;;;;;;;5117729;27;20031;-69
2022/08/17 02:15:59;;;;;;;57.13;37.20;;;18.90;99.90;;;;;;5132338;27;20794;-69
2022/08/17 02:18:26;;;;;;;58.65;36.33;;;18.90;99.90;;;;;;5095016;27;20482;-69
2022/08/17 02:20:52;;;;;;;54.95;35.30;;;19.10;99.90;;;;;;5129790;27;20680;-69
2022/08/17 02:23:22;;;;;;;58.20;36.42;;;19.00;99.90;;;;;;5128834;27;20027;-69
2022/08/17 02:25:48;;;;;;;59.30;37.35;;;18.90;99.90;;;;;;5119185;27;20039;-70
2022/08/17 02:28:15;;;;;;;55.95;36.75;;;18.80;99.90;;;;;;5111522;27;20031;-70
2022/08/17 02:30:41;;;;;;;57.05;36.83;;;;;;;;;;5130655;27;20136;-69
2022/08/17 02:33:07;;;;;;;62.53;38.55;;;;;;;;;;5124353;27;20039;-70
2022/08/17 02:35:37;;;;;;;61.40;38.35;;;20.20;99.90;;;;;;5111071;27;20468;-70
2022/08/17 02:38:04;;;;;;;58.70;38.20;;;18.80;99.90;;;;;;5145812;27;20035;-70
2022/08/17 02:40:31;;;;;;;57.78;37.58;;;19.90;99.90;;;;;;5129517;27;20042;-69
2022/08/17 02:42:57;;;;;;;59.25;39.55;;;20.60;99.90;;;;;;5106626;27;20145;-69
2022/08/17 02:45:24;;;;;;;65.68;42.17;;;18.70;99.90;;;;;;5114989;27;20087;-70
2022/08/17 02:47:50;;;;;;;65.50;41.78;;;19.90;99.90;;;;;;5136385;27;20122;-69
2022/08/17 02:50:19;;;;;;;63.28;41.50;;;18.80;99.90;;;;;;5103833;28;20060;-69
2022/08/17 02:52:46;;;;;;;62.92;40.92;;;18.60;99.90;;;;;;5121322;27;20038;-69
2022/08/17 02:55:23;;;;;;;66.18;40.40;;;18.90;99.90;;;;;;5114690;27;20374;-69
2022/08/17 02:57:49;;;;;;;64.55;39.30;;;19.90;99.90;;;;;;5120686;27;20035;-69
2022/08/17 03:00:21;;;;;;;63.10;41.80;;;18.90;99.90;;;;;;5145664;27;20101;-70
2022/08/17 03:02:48;;;;;;;65.45;39.67;;;;;;;;;;5117333;27;20036;-69
2022/08/17 03:05:16;;;;;;;57.60;38.63;;;20.50;99.90;;;;;;5119408;27;20027;-69
2022/08/17 03:07:41;;;;;;;59.28;35.72;;;20.00;99.90;;;;;;5132321;27;20031;-70
2022/08/17 03:10:09;;;;;;;63.60;33.72;;;20.80;99.90;;;;;;5145766;27;20024;-69
2022/08/17 03:12:37;;;;;;;52.83;33.00;;;18.40;99.90;;;;;;5115050;27;20039;-70
2022/08/17 03:15:06;;;;;;;47.75;32.47;;;18.40;99.90;;;;;;5124741;27;20042;-69
2022/08/17 03:17:32;;;;;;;46.85;31.98;;;20.10;99.90;;;;;;5120973;27;20031;-69
2022/08/17 03:19:57;;;;;;;45.78;32.97;;;20.30;99.90;;;;;;5131223;27;20176;-69
2022/08/17 03:22:24;;;;;;;45.72;33.05;;;;;;;;;;5129585;27;20091;-69
2022/08/17 03:24:50;;;;;;;45.70;32.35;;;;;;;;;;5112134;28;20139;-69
2022/08/17 03:27:16;;;;;;;51.63;33.55;;;18.80;99.90;;;;;;5113667;27;20035;-69
2022/08/17 03:29:42;;;;;;;52.25;34.70;;;19.40;99.90;;;;;;5147733;27;20050;-70
2022/08/17 03:32:13;;;;;;;53.70;35.42;;;20.40;99.90;;;;;;5079936;28;20043;-69
2022/08/17 03:34:39;;;;;;;48.97;34.13;;;;;;;;;;5113758;27;20364;-69
2022/08/17 03:37:05;;;;;;;49.78;34.25;;;;;;;;;;5111717;28;20051;-69
2022/08/17 03:39:31;;;;;;;50.60;33.22;;;;;;;;;;5127509;27;20088;-69
2022/08/17 03:42:11;;;;;;;49.53;34.83;;;20.20;99.90;;;;;;5125079;27;20055;-69
2022/08/17 03:44:37;;;;;;;54.72;35.45;;;18.00;99.90;;;;;;5133219;27;20040;-69
2022/08/17 03:58:00;;;;;;;65.38;39.38;;;18.40;99.90;;;;;;5126473;28;20095;-69
2022/08/17 04:00:26;;;;;;;58.50;38.35;;;;;;;;;;5118765;28;20035;-69
2022/08/17 04:02:53;;;;;;;61.00;38.78;;;19.10;99.90;;;;;;5111944;28;20126;-70
2022/08/17 04:05:19;;;;;;;59.53;38.40;;;20.40;99.90;;;;;;5116676;28;20039;-70
2022/08/17 04:07:45;;;;;;;57.88;39.60;;;20.10;99.90;;;;;;5128909;28;20386;-70
2022/08/17 04:10:10;;;;;;;63.75;41.15;;;20.30;99.90;;;;;;5116364;28;20034;-71
2022/08/17 04:12:53;;;;;;;60.85;40.20;;;18.70;99.90;;;;;;5112218;28;20043;-71
2022/08/17 04:15:20;;;;;;;59.15;38.90;;;20.20;99.90;;;;;;5137401;27;20043;-70
2022/08/17 04:17:46;;;;;;;61.90;38.53;;;20.20;99.90;;;;;;5129371;28;20047;-70
2022/08/17 04:20:15;;;;;;;62.63;39.25;;;20.40;99.90;;;;;;5129520;28;20390;-70
2022/08/17 04:23:05;;;;;;;60.40;38.30;;;19.30;99.90;;;;;;5120583;28;20122;-70
2022/08/17 04:25:33;;;;;;;61.35;38.40;;;17.90;99.90;;;;;;5122782;28;20036;-70
2022/08/17 04:28:00;;;;;;;56.58;35.90;;;19.10;99.90;;;;;;5095274;28;20039;-70
2022/08/17 04:30:29;;;;;;;57.20;35.97;;;19.20;99.90;;;;;;5127395;28;20082;-70
2022/08/17 04:32:55;;;;;;;57.67;35.90;;;;;;;;;;5125765;28;20047;-70
2022/08/17 04:35:24;;;;;;;64.07;35.72;;;20.30;99.90;;;;;;5117655;28;20039;-70
2022/08/17 04:37:51;;;;;;;55.58;34.00;;;;;;;;;;5123206;28;20189;-70
2022/08/17 04:43:14;;;;;;;56.50;32.20;;;18.40;99.90;;;;;;5137099;27;20402;-72
2022/08/17 04:45:43;;;;;;;50.13;32.15;;;19.00;99.90;;;;;;5125396;28;20035;-80
2022/08/17 04:48:09;;;;;;;60.35;33.13;;;;;;;;;;5125745;27;20038;-71
2022/08/17 04:50:38;;;;;;;48.25;31.42;;;18.60;99.90;;;;;;5128632;27;20047;-72
2022/08/17 04:53:04;;;;;;;55.95;33.58;;;17.90;99.90;;;;;;5129945;27;20483;-76
2022/08/17 04:55:30;;;;;;;56.10;33.63;;;;;;;;;;5128847;27;20130;-78
2022/08/17 04:57:56;;;;;;;56.35;33.65;;;17.90;99.90;;;;;;5131259;27;20402;-80
2022/08/17 05:00:24;;;;;;;67.00;31.55;;;19.40;99.90;;;;;;5133022;27;20513;-78
2022/08/17 05:02:52;;;;;;;96.35;32.50;;;19.40;99.90;;;;;;5117144;27;20516;-78
2022/08/17 05:05:31;;;;;;;61.60;32.78;;;19.20;99.90;;;;;;5105997;27;20518;-77
2022/08/17 05:07:59;;;;;;;59.92;31.65;;;19.00;99.90;;;;;;5119338;27;20061;-79
2022/08/17 05:10:28;;;;;;;68.70;32.83;;;19.00;99.90;;;;;;5103513;28;20035;-69
2022/08/17 05:13:08;;;;;;;50.78;31.55;;;18.70;99.90;;;;;;5119408;27;20039;-70
2022/08/17 05:15:36;;;;;;;70.60;33.83;;;19.20;99.90;;;;;;5123883;27;20100;-69
2022/08/17 05:18:03;;;;;;;69.45;34.30;;;19.30;99.90;;;;;;5124461;27;20047;-70
2022/08/17 05:20:30;;;;;;;63.92;33.28;;;;;;;;;;5126874;27;20032;-70
2022/08/17 05:22:58;;;;;;;57.97;32.92;;;19.00;99.90;;;;;;5125375;27;20073;-70
2022/08/17 05:25:28;;;;;;;54.65;33.40;;;18.70;99.90;;;;;;5130391;27;20039;-70
2022/08/17 05:27:55;;;;;;;53.85;34.13;;;18.90;99.90;;;;;;5115380;27;20039;-70
2022/08/17 05:30:22;;;;;;;51.42;32.58;;;18.10;99.90;;;;;;5134505;27;20027;-70
2022/08/17 05:32:56;;;;;;;48.42;33.25;;;19.90;99.90;;;;;;5134780;27;20091;-70
2022/08/17 05:35:22;;;;;;;54.72;32.92;;;;;;;;;;5134256;27;20039;-70
2022/08/17 05:37:48;;;;;;;53.00;34.17;;;18.00;99.90;;;;;;5134739;27;20445;-70
2022/08/17 05:40:14;;;;;;;47.17;32.00;;;17.90;99.90;;;;;;5133875;27;20440;-70
2022/08/17 05:42:40;;;;;;;53.00;34.35;;;19.40;99.90;;;;;;5117161;27;20138;-70
2022/08/17 05:45:08;;;;;;;51.05;32.65;;;20.20;99.90;;;;;;5114353;27;20118;-70
2022/08/17 05:47:35;;;;;;;46.33;31.30;;;19.80;99.90;;;;;;5133817;27;20091;-70
2022/08/17 05:50:01;;;;;;;60.58;37.40;;;18.40;99.90;;;;;;5133722;27;20078;-70
2022/08/17 05:53:06;;;;;;;57.38;36.72;;;18.90;99.90;;;;;;5134407;27;20039;-70
2022/08/17 05:55:44;;;;;;;54.33;34.90;;;20.10;99.90;;;;;;5109615;27;20086;-70
2022/08/17 05:58:25;;;;;;;54.35;37.10;;;19.80;99.90;;;;;;5116608;27;20485;-71
2022/08/17 06:01:06;;;;;;;50.80;35.40;;;19.30;99.90;;;;;;5130716;27;20436;-70
2022/08/17 06:03:45;;;;;;;53.88;36.05;;;19.20;99.90;;;;;;5130308;27;20054;-71
2022/08/17 06:06:35;;;;;;;53.00;35.90;;;19.20;99.90;;;;;;5130404;27;20035;-70
2022/08/17 06:09:23;;;;;;;54.33;36.78;;;18.50;99.90;;;;;;5131976;27;20035;-71
2022/08/17 06:11:58;;;;;;;53.95;37.30;;;19.50;99.90;;;;;;5132655;27;20126;-70
2022/08/17 06:14:33;;;;;;;53.92;35.80;;;19.40;99.90;;;;;;5132427;27;20038;-71
2022/08/17 06:17:04;;;;;;;52.83;35.70;;;;;;;;;;5133413;27;20582;-71
2022/08/17 06:32:11;;;;;;;61.70;35.55;;;20.60;99.90;;;;;;5210421;24;20058;-69
2022/08/17 06:37:50;;;;;;;53.63;35.67;;;;;;;;;;5236193;24;20057;-72
2022/08/17 06:40:39;;;;;;;54.40;35.33;;;19.70;99.90;;;;;;4852666;29;20056;-72
2022/08/17 06:43:40;;;;;;;61.83;39.33;;;19.50;99.90;;;;;;4837847;29;20341;-73
2022/08/17 06:54:51;;;;;;;62.33;38.20;;;19.70;99.90;;;;;;5573743;24;20025;-66
2022/08/17 06:57:27;;;;;;;58.50;39.30;;;18.70;99.90;;;;;;4825072;29;20078;-69
2022/08/17 06:59:58;;;;;;;66.95;42.00;;;19.70;99.90;;;;;;4802556;29;20121;-68
2022/08/17 07:02:45;;;;;;;69.50;41.63;;;19.90;99.90;;;;;;4798292;29;20053;-68
2022/08/17 07:05:14;;;;;;;72.97;44.20;;;20.20;99.90;;;;;;4800256;29;20063;-68
2022/08/17 07:08:01;;;;;;;72.28;44.58;;;18.60;99.90;;;;;;4813508;29;20445;-68
2022/08/17 07:10:41;;;;;;;82.95;46.78;;;20.40;99.90;;;;;;4799991;29;20156;-68
2022/08/17 07:13:36;;;;;;;75.93;46.60;;;20.40;99.90;;;;;;4797036;29;20051;-67
2022/08/17 07:16:14;;;;;;;76.65;47.85;;;19.60;99.90;;;;;;4796074;29;20427;-68
2022/08/17 07:18:40;;;;;;;78.63;49.30;;;19.90;99.90;;;;;;4791845;29;20107;-73
2022/08/17 07:21:15;;;;;;;83.45;52.13;;;19.20;99.90;;;;;;4820080;29;20046;-71
2022/08/17 07:24:19;;;;;;;80.75;51.75;;;19.80;99.90;;;;;;4822816;29;20087;-73
2022/08/17 07:26:48;;;;;;;88.70;54.10;;;20.70;99.90;;;;;;4801683;29;20046;-73
2022/08/17 07:29:17;;;;;;;83.25;51.92;;;19.10;99.90;;;;;;4807899;29;20073;-73
2022/08/17 07:31:44;;;;;;;80.60;51.00;;;19.70;99.90;;;;;;4806079;29;20061;-73
2022/08/17 07:34:14;;;;;;;83.18;52.63;;;20.60;99.90;;;;;;4787241;30;20059;-74
2022/08/17 07:36:42;;;;;;;92.07;53.88;;;20.80;99.90;;;;;;4772267;30;20112;-72
2022/08/17 07:39:09;;;;;;;82.13;51.80;;;20.60;99.90;;;;;;4803303;29;20396;-73
2022/08/17 07:41:38;;;;;;;86.25;52.30;;;19.70;99.90;;;;;;4820372;29;20415;-73
2022/08/17 07:44:12;;;;;;;85.57;52.63;;;20.30;99.90;;;;;;4821929;29;20051;-74
2022/08/17 07:49:41;;;;;;;76.90;48.70;;;20.70;99.90;;;;;;4812357;29;20054;-74
2022/08/17 07:52:11;;;;;;;79.85;49.65;;;20.00;99.90;;;;;;4789279;29;20058;-74
2022/08/17 07:54:41;;;;;;;73.15;48.60;;;19.80;99.90;;;;;;4828209;29;20052;-71
2022/08/17 07:57:13;;;;;;;76.45;49.03;;;18.90;99.90;;;;;;4801186;29;20054;-73
2022/08/17 07:59:41;;;;;;;73.53;49.80;;;20.10;99.90;;;;;;4811981;29;20107;-73
2022/08/17 08:02:14;;;;;;;79.93;51.67;;;20.10;99.90;;;;;;4833126;29;20046;-73
2022/08/17 08:04:57;;;;;;;78.63;47.72;;;21.10;99.90;;;;;;4829014;29;20121;-73
2022/08/17 08:07:46;;;;;;;77.15;48.92;;;20.20;99.90;;;;;;4810951;29;20041;-73
2022/08/17 08:10:12;;;;;;;81.45;50.67;;;;;;;;;;4832267;29;20118;-73
2022/08/17 08:12:46;;;;;;;77.28;50.35;;;20.70;99.90;;;;;;4798185;29;20046;-74
2022/08/17 08:15:21;;;;;;;79.35;48.97;;;20.00;99.90;;;;;;4810382;29;20042;-73
2022/08/17 08:17:52;;;;;;;74.68;49.40;;;20.00;99.90;;;;;;4796061;29;20135;-74
2022/08/17 08:20:34;;;;;;;76.18;48.53;;;20.20;99.90;;;;;;4813488;29;20097;-74
2022/08/17 08:23:05;;;;;;;79.03;50.00;;;19.80;99.90;;;;;;4809092;29;20072;-73
2022/08/17 08:25:50;;;;;;;74.50;49.10;;;18.80;99.90;;;;;;4814874;29;20055;-73
2022/08/17 08:28:27;;;;;;;69.97;47.38;;;20.40;99.90;;;;;;4813944;29;20085;-74
2022/08/17 08:31:06;;;;;;;70.70;48.35;;;19.20;99.90;;;;;;4839382;29;20039;-73
2022/08/17 08:33:59;;;;;;;72.40;49.22;;;20.00;99.90;;;;;;4808129;29;20062;-73
2022/08/17 08:36:39;;;;;;;65.30;46.05;;;20.00;99.90;;;;;;4789628;29;20043;-74
2022/08/17 08:39:28;;;;;;;70.63;46.92;;;19.50;99.90;;;;;;4806664;29;20181;-73
2022/08/17 08:42:11;;;;;;;68.13;46.95;;;20.00;99.90;;;;;;4804905;29;20042;-74
2022/08/17 08:44:59;;;;;;;75.88;50.55;;;20.70;99.90;;;;;;4789974;29;20121;-73
2022/08/17 08:47:52;;;;;;;68.15;48.50;;;20.50;99.90;;;;;;4805514;29;20043;-73
2022/08/17 08:50:31;;;;;;;72.32;48.75;;;20.10;99.90;;;;;;4789584;29;20061;-72
2022/08/17 08:53:54;;;;;;;74.22;48.22;;;19.10;99.90;;;;;;4806444;29;20087;-71
2022/08/17 08:56:20;;;;;;;;;;;20.10;99.90;;;;;;4787646;29;20075;-71
2022/08/17 08:59:21;;;;;;;69.68;46.90;;;20.50;99.90;;;;;;4794383;29;19929;-71
2022/08/17 09:02:24;;;;;;;67.93;46.80;;;19.50;99.90;;;;;;4777296;29;20046;-71
2022/08/17 09:05:16;;;;;;;62.10;45.67;;;18.80;99.90;;;;;;4804794;29;20053;-70
2022/08/17 09:08:02;;;;;;;66.95;45.13;;;20.30;99.90;;;;;;4806238;29;20129;-70
2022/08/17 09:10:49;;;;;;;63.53;41.45;;;19.50;99.90;;;;;;4806136;29;20114;-68
2022/08/17 09:13:15;;;;;;;57.75;38.45;;;;;;;;;;4805021;29;20050;-68
2022/08/17 09:15:57;;;;;;;59.75;38.17;;;20.30;99.90;;;;;;4807247;29;20062;-68
2022/08/17 09:18:34;;;;;;;53.88;37.33;;;19.00;99.90;;;;;;4807236;29;20047;-68
2022/08/17 09:21:01;;;;;;;56.17;36.88;;;20.40;99.90;;;;;;4804545;29;20046;-68
2022/08/17 09:23:43;;;;;;;59.22;38.13;;;20.60;99.90;;;;;;4790940;29;20039;-68
2022/08/17 09:26:09;;;;;;;51.60;35.53;;;;;;;;;;4804935;29;20413;-68
2022/08/17 09:28:37;;;;;;;53.38;36.17;;;19.80;99.90;;;;;;4805665;29;20047;-68
2022/08/17 09:31:10;;;;;;;49.72;35.25;;;20.80;99.90;;;;;;4790546;29;20042;-68
2022/08/17 09:33:42;;;;;;;52.50;35.08;;;19.00;99.90;;;;;;4835111;29;20564;-68
2022/08/17 09:36:34;;;;;;;51.15;36.08;;;20.80;99.90;;;;;;4804688;29;20047;-68
2022/08/17 09:39:09;;;;;;;53.67;36.33;;;19.90;99.90;;;;;;4806601;29;20078;-68
2022/08/17 09:41:54;;;;;;;52.97;35.67;;;20.00;99.90;;;;;;4805674;29;20035;-70
2022/08/17 09:44:41;;;;;;;53.92;35.70;;;19.00;99.90;;;;;;4804763;29;20491;-68
2022/08/17 09:47:45;;;;;;;48.83;35.45;;;20.10;99.90;;;;;;4805632;29;20050;-68
2022/08/17 09:50:26;;;;;;;46.08;31.10;;;20.20;99.90;;;;;;4811991;29;20039;-68
2022/08/17 09:52:57;;;;;;;24.98;20.73;;;19.70;99.90;;;;;;4833440;29;20059;-68
2022/08/17 09:55:37;;;;;;;19.83;16.08;;;19.50;99.90;;;;;;4804595;29;20055;-68
2022/08/17 09:58:32;;;;;;;23.40;17.75;;;19.60;99.90;;;;;;4803241;29;20090;-68
2022/08/17 10:01:21;;;;;;;27.02;21.65;;;20.30;99.90;;;;;;4802716;29;20046;-68
2022/08/17 10:04:07;;;;;;;30.40;24.45;;;19.50;99.90;;;;;;4806342;29;20500;-68
2022/08/17 10:07:01;;;;;;;30.95;24.27;;;20.30;99.90;;;;;;4821268;29;20094;-68
2022/08/17 10:09:54;;;;;;;26.60;22.38;;;19.50;99.90;;;;;;4796639;29;20050;-68
2022/08/17 10:12:46;;;;;;;30.85;20.98;;;19.50;99.90;;;;;;4805498;29;20063;-67
2022/08/17 10:15:39;;;;;;;28.58;20.75;;;19.50;99.90;;;;;;4806153;29;20460;-68
2022/08/17 10:18:34;;;;;;;34.15;21.98;;;20.40;99.90;;;;;;4821270;29;20051;-68
2022/08/17 10:26:37;;;;;;;38.83;24.77;;;20.30;99.90;;;;;;4822466;29;20087;-68
2022/08/17 10:29:10;;;;;;;31.80;23.35;;;19.20;99.90;;;;;;4824234;29;20119;-68
2022/08/17 10:32:07;;;;;;;27.70;20.90;;;18.70;99.90;;;;;;4805856;29;20039;-68
2022/08/17 10:34:49;;;;;;;24.25;19.70;;;20.40;99.90;;;;;;4805276;29;20556;-68
2022/08/17 10:37:52;;;;;;;30.60;19.87;;;19.50;99.90;;;;;;4805442;29;20568;-68
2022/08/17 10:40:35;;;;;;;26.80;19.83;;;18.30;99.90;;;;;;4805549;29;20047;-68
2022/08/17 10:43:04;;;;;;;29.25;20.05;;;20.30;99.90;;;;;;4805705;29;20491;-68
2022/08/17 10:46:05;;;;;;;25.55;18.45;;;19.40;99.90;;;;;;4805396;29;20050;-68
2022/08/17 10:48:35;;;;;;;26.00;16.95;;;20.30;99.90;;;;;;4789818;29;20063;-69
2022/08/17 10:51:06;;;;;;;22.40;15.77;;;19.30;99.90;;;;;;4806440;29;20043;-68
2022/08/17 10:53:32;;;;;;;21.75;16.92;;;20.00;99.90;;;;;;4805091;29;20058;-68
2022/08/17 10:56:12;;;;;;;21.85;17.45;;;20.40;99.90;;;;;;4805079;29;20055;-68
2022/08/17 10:58:53;;;;;;;24.67;18.17;;;19.70;99.90;;;;;;4805425;29;20055;-68
2022/08/17 11:01:31;;;;;;;27.13;17.98;;;19.70;99.90;;;;;;4805419;29;20050;-68
2022/08/17 11:04:23;;;;;;;21.50;15.30;;;19.70;99.90;;;;;;4802946;29;20057;-68
2022/08/17 11:07:34;;;;;;;20.85;15.05;;;19.00;99.90;;;;;;4805589;29;20503;-68
2022/08/17 11:10:06;;;;;;;20.23;14.02;;;19.70;99.90;;;;;;4794572;29;20042;-68
2022/08/17 11:12:40;;;;;;;23.25;14.80;;;18.20;99.90;;;;;;4804902;29;20146;-68
2022/08/17 11:15:28;;;;;;;18.77;14.88;;;19.90;99.90;;;;;;4805143;29;20411;-68
2022/08/17 11:18:03;;;;;;;22.83;14.50;;;19.40;99.90;;;;;;4805253;29;20042;-68
2022/08/17 11:20:56;;;;;;;21.23;15.68;;;18.60;99.90;;;;;;4805206;29;20057;-68
2022/08/17 11:23:47;;;;;;;27.08;17.58;;;20.40;99.90;;;;;;4804477;29;20043;-68
2022/08/17 11:26:24;;;;;;;27.00;19.85;;;20.60;99.90;;;;;;4805070;29;20147;-68
2022/08/17 11:28:58;;;;;;;30.98;21.17;;;18.70;99.90;;;;;;4804799;29;20054;-68
2022/08/17 11:31:38;;;;;;;29.27;20.70;;;20.40;99.90;;;;;;4805180;29;20073;-68
2022/08/17 11:34:20;;;;;;;33.65;22.80;;;20.90;99.90;;;;;;4825947;29;20078;-68
2022/08/17 11:36:46;;;;;;;33.20;23.25;;;;;;;;;;4805126;29;20046;-68
2022/08/17 11:39:18;;;;;;;37.75;25.13;;;19.90;99.90;;;;;;4804426;29;20453;-68
2022/08/17 11:42:04;;;;;;;34.83;25.60;;;19.00;99.90;;;;;;4805082;29;20115;-68
2022/08/17 11:44:54;;;;;;;28.95;21.55;;;20.10;99.90;;;;;;4789712;29;20055;-68
2022/08/17 11:53:36;;;;;;;36.78;25.70;;;21.10;99.90;;;;;;4792858;29;20415;-69
2022/08/17 11:56:06;;;;;;;36.30;27.10;;;20.40;99.90;;;;;;4804395;29;20063;-68
2022/08/17 11:58:37;;;;;;;36.97;27.13;;;21.30;99.90;;;;;;4805607;29;20058;-68
2022/08/17 12:01:05;;;;;;;40.75;26.50;;;20.30;99.90;;;;;;4808300;29;20058;-69
2022/08/17 12:03:32;;;;;;;41.42;25.73;;;21.00;99.90;;;;;;4836100;29;20074;-68
2022/08/17 12:06:15;;;;;;;36.17;25.92;;;21.00;99.90;;;;;;4808395;29;20059;-69
2022/08/17 12:08:50;;;;;;;35.85;25.63;;;20.30;99.90;;;;;;4807878;29;20035;-68
2022/08/17 12:11:23;;;;;;;29.15;23.08;;;21.20;99.90;;;;;;4808331;29;20070;-68
2022/08/17 12:13:54;;;;;;;28.98;23.00;;;20.40;99.90;;;;;;4834562;29;20050;-69
2022/08/17 12:16:21;;;;;;;29.02;21.45;;;19.40;99.90;;;;;;4809789;29;20075;-68
2022/08/17 12:19:01;;;;;;;28.45;20.80;;;20.20;99.90;;;;;;4789894;30;20173;-68
2022/08/17 12:21:36;;;;;;;25.38;18.02;;;20.70;99.90;;;;;;4797828;29;20127;-69
2022/08/17 12:24:05;;;;;;;23.05;18.30;;;20.50;99.90;;;;;;4807780;29;20103;-68
2022/08/17 12:26:34;;;;;;;25.50;18.27;;;20.60;99.90;;;;;;4808035;29;20121;-68
2022/08/17 12:29:03;;;;;;;22.98;18.10;;;19.60;99.90;;;;;;4792892;29;20042;-69
2022/08/17 12:31:50;;;;;;;25.40;17.92;;;20.20;99.90;;;;;;4838697;29;20060;-69
2022/08/17 12:34:25;;;;;;;23.45;17.67;;;20.80;99.90;;;;;;4807450;29;20047;-68
2022/08/17 12:36:58;;;;;;;20.45;16.33;;;20.50;99.90;;;;;;4789993;30;20047;-68
2022/08/17 12:39:25;;;;;;;23.45;16.00;;;21.30;99.90;;;;;;4798314;29;20051;-69
2022/08/17 12:41:55;;;;;;;26.05;16.58;;;20.40;99.90;;;;;;4837956;29;20401;-69
2022/08/17 12:44:21;;;;;;;23.17;16.65;;;21.60;99.90;;;;;;4832354;29;20491;-69
2022/08/17 12:46:55;;;;;;;24.30;17.70;;;20.70;99.90;;;;;;4807572;29;20043;-68
2022/08/17 12:49:30;;;;;;;28.58;17.48;;;21.00;99.90;;;;;;4807436;29;20043;-68
2022/08/17 12:52:18;;;;;;;23.38;16.20;;;21.20;99.90;;;;;;4838013;29;20086;-69
2022/08/17 12:54:44;;;;;;;26.35;16.58;;;;;;;;;;4791495;29;20061;-69
2022/08/17 12:57:16;;;;;;;23.52;16.70;;;20.90;99.90;;;;;;4806318;29;20062;-69
2022/08/17 12:59:47;;;;;;;25.17;16.83;;;21.30;99.90;;;;;;4807359;29;20090;-69
2022/08/17 13:02:31;;;;;;;22.42;16.50;;;22.00;99.90;;;;;;4838015;29;20082;-69
2022/08/17 13:04:59;;;;;;;26.35;16.25;;;21.30;99.90;;;;;;4806133;29;20063;-69
2022/08/17 13:07:32;;;;;;;18.70;14.45;;;22.20;99.90;;;;;;4805282;29;20061;-69
2022/08/17 13:09:58;;;;;;;23.98;14.45;;;22.30;99.90;;;;;;4834841;29;20080;-69
2022/08/17 13:12:29;;;;;;;23.08;14.13;;;22.20;99.90;;;;;;4805478;29;20047;-69
2022/08/17 13:14:56;;;;;;;21.10;14.57;;;20.90;99.90;;;;;;4837105;29;20088;-69
2022/08/17 13:17:33;;;;;;;23.30;14.88;;;20.30;99.90;;;;;;4807455;29;20090;-69
2022/08/17 13:19:59;;;;;;;19.20;15.02;;;20.50;99.90;;;;;;4837343;29;20492;-69
2022/08/17 13:22:28;;;;;;;19.48;14.60;;;20.50;99.90;;;;;;4837620;29;20034;-69
2022/08/17 13:24:57;;;;;;;23.98;15.60;;;20.30;99.90;;;;;;4807279;29;20107;-69
2022/08/17 13:27:25;;;;;;;22.67;15.05;;;21.10;99.90;;;;;;4837494;29;20082;-69
2022/08/17 13:30:06;;;;;;;20.70;14.85;;;20.60;99.90;;;;;;4837674;29;20042;-69
2022/08/17 13:32:39;;;;;;;22.67;13.88;;;21.40;99.90;;;;;;4837639;29;20522;-69
2022/08/17 13:35:28;;;;;;;21.80;14.00;;;22.00;99.90;;;;;;4837209;29;20073;-69
2022/08/17 13:38:01;;;;;;;25.80;14.55;;;21.90;99.90;;;;;;4806892;29;20050;-69
2022/08/17 13:40:37;;;;;;;19.63;15.52;;;21.70;99.90;;;;;;4806780;29;20051;-69
2022/08/17 13:43:03;;;;;;;23.17;14.80;;;21.00;99.90;;;;;;4806789;29;20097;-69
2022/08/17 13:45:33;;;;;;;26.17;14.93;;;22.20;99.90;;;;;;4837406;29;20084;-69
2022/08/17 13:48:25;;;;;;;21.52;15.23;;;21.10;99.90;;;;;;4806675;29;20051;-69
2022/08/17 13:50:51;;;;;;;21.80;14.50;;;;;;;;;;4806832;29;20078;-69
2022/08/17 13:53:37;;;;;;;19.52;14.40;;;22.10;99.90;;;;;;4806765;29;20046;-69
2022/08/17 13:56:06;;;;;;;21.90;14.23;;;22.30;99.90;;;;;;4802700;29;20062;-69
2022/08/17 13:58:36;;;;;;;17.50;13.02;;;21.80;99.90;;;;;;4837418;29;20436;-69
2022/08/17 14:01:32;;;;;;;17.75;12.73;;;22.00;99.90;;;;;;4836797;29;20088;-69
2022/08/17 14:04:00;;;;;;;19.90;13.60;;;22.10;99.90;;;;;;4806686;29;20199;-69